sensor_id;sensor_type;location;lat;lon;timestamp;pressure;altitude;pressure_sealevel;temperature;humidity
82512;BME280;72152;65.012;25.464;2023-10-31T00:01:27;100861.34;;;-1.11;71.11
82512;BME280;72152;65.012;25.464;2023-10-31T00:04:10;100864.89;;;-1.09;71.20
82512;BME280;72152;65.012;25.464;2023-10-31T00:06:56;100860.39;;;-1.06;71.36
82512;BME280;72152;65.012;25.464;2023-10-31T00:09:40;100861.86;;;-1.04;71.16
82512;BME280;72152;65.012;25.464;2023-10-31T00:12:26;100858.88;;;-1.01;71.21
82512;BME280;72152;65.012;25.464;2023-10-31T00:15:16;100862.81;;;-0.98;71.16
82512;BME280;72152;65.012;25.464;2023-10-31T00:18:10;100864.19;;;-0.98;71.22
82512;BME280;72152;65.012;25.464;2023-10-31T00:20:59;100865.92;;;-0.98;71.18
82512;BME280;72152;65.012;25.464;2023-10-31T00:23:48;100868.13;;;-0.99;71.10
82512;BME280;72152;65.012;25.464;2023-10-31T00:26:37;100870.68;;;-0.96;71.13
82512;BME280;72152;65.012;25.464;2023-10-31T00:29:34;100871.28;;;-0.94;71.13
82512;BME280;72152;65.012;25.464;2023-10-31T00:32:29;100872.96;;;-0.99;71.56
82512;BME280;72152;65.012;25.464;2023-10-31T00:35:25;100875.67;;;-1.04;71.81
82512;BME280;72152;65.012;25.464;2023-10-31T00:38:10;100884.11;;;-1.08;71.73
82512;BME280;72152;65.012;25.464;2023-10-31T00:40:55;100888.08;;;-1.15;71.56
82512;BME280;72152;65.012;25.464;2023-10-31T00:43:43;100892.71;;;-1.23;71.60
82512;BME280;72152;65.012;25.464;2023-10-31T00:46:32;100896.45;;;-1.32;71.56
82512;BME280;72152;65.012;25.464;2023-10-31T00:49:23;100901.52;;;-1.38;71.34
82512;BME280;72152;65.012;25.464;2023-10-31T00:52:12;100903.99;;;-1.48;70.96
82512;BME280;72152;65.012;25.464;2023-10-31T00:55:03;100906.51;;;-1.57;71.07
82512;BME280;72152;65.012;25.464;2023-10-31T00:57:48;100905.78;;;-1.65;71.04
82512;BME280;72152;65.012;25.464;2023-10-31T01:00:41;100901.50;;;-1.71;71.24
82512;BME280;72152;65.012;25.464;2023-10-31T01:03:26;100899.55;;;-1.76;71.25
82512;BME280;72152;65.012;25.464;2023-10-31T01:06:15;100904.92;;;-1.79;71.33
82512;BME280;72152;65.012;25.464;2023-10-31T01:09:04;100909.04;;;-1.83;71.18
82512;BME280;72152;65.012;25.464;2023-10-31T01:11:52;100914.58;;;-1.86;71.28
82512;BME280;72152;65.012;25.464;2023-10-31T01:14:39;100918.21;;;-1.89;71.17
82512;BME280;72152;65.012;25.464;2023-10-31T01:17:19;100920.28;;;-1.89;71.10
82512;BME280;72152;65.012;25.464;2023-10-31T01:23:14;100923.63;;;-1.95;71.04
82512;BME280;72152;65.012;25.464;2023-10-31T01:26:01;100923.52;;;-1.97;71.19
82512;BME280;72152;65.012;25.464;2023-10-31T01:28:51;100926.52;;;-1.99;71.20
82512;BME280;72152;65.012;25.464;2023-10-31T01:31:39;100924.95;;;-2.02;71.27
82512;BME280;72152;65.012;25.464;2023-10-31T01:34:23;100928.50;;;-2.04;71.53
82512;BME280;72152;65.012;25.464;2023-10-31T01:37:12;100928.31;;;-2.04;71.65
82512;BME280;72152;65.012;25.464;2023-10-31T01:40:02;100936.29;;;-2.03;71.62
82512;BME280;72152;65.012;25.464;2023-10-31T01:42:45;100935.19;;;-2.04;71.41
82512;BME280;72152;65.012;25.464;2023-10-31T01:45:38;100937.75;;;-2.05;71.66
82512;BME280;72152;65.012;25.464;2023-10-31T01:48:38;100939.23;;;-2.03;71.74
82512;BME280;72152;65.012;25.464;2023-10-31T01:51:27;100944.05;;;-2.03;71.61
82512;BME280;72152;65.012;25.464;2023-10-31T01:54:13;100951.23;;;-2.05;71.53
82512;BME280;72152;65.012;25.464;2023-10-31T01:57:01;100953.95;;;-2.05;71.56
82512;BME280;72152;65.012;25.464;2023-10-31T01:59:50;100951.24;;;-2.04;71.59
82512;BME280;72152;65.012;25.464;2023-10-31T02:02:38;100947.61;;;-2.05;71.59
82512;BME280;72152;65.012;25.464;2023-10-31T02:05:24;100946.95;;;-2.04;71.60
82512;BME280;72152;65.012;25.464;2023-10-31T02:08:13;100949.11;;;-2.02;71.54
82512;BME280;72152;65.012;25.464;2023-10-31T02:11:02;100943.52;;;-2.00;71.59
82512;BME280;72152;65.012;25.464;2023-10-31T02:13:52;100942.77;;;-1.98;71.61
82512;BME280;72152;65.012;25.464;2023-10-31T02:16:45;100946.16;;;-1.96;71.56
82512;BME280;72152;65.012;25.464;2023-10-31T02:19:38;100947.13;;;-1.94;71.50
82512;BME280;72152;65.012;25.464;2023-10-31T02:22:20;100950.89;;;-1.98;71.31
82512;BME280;72152;65.012;25.464;2023-10-31T02:25:24;100949.05;;;-2.03;71.37
82512;BME280;72152;65.012;25.464;2023-10-31T02:28:12;100946.96;;;-2.07;71.56
82512;BME280;72152;65.012;25.464;2023-10-31T02:31:04;100946.30;;;-2.13;71.45
82512;BME280;72152;65.012;25.464;2023-10-31T02:33:48;100946.35;;;-2.19;71.50
82512;BME280;72152;65.012;25.464;2023-10-31T02:36:38;100951.66;;;-2.23;71.60
82512;BME280;72152;65.012;25.464;2023-10-31T02:39:25;100956.95;;;-2.31;71.68
82512;BME280;72152;65.012;25.464;2023-10-31T02:42:12;100958.09;;;-2.35;71.77
82512;BME280;72152;65.012;25.464;2023-10-31T02:44:52;100953.88;;;-2.40;71.80
82512;BME280;72152;65.012;25.464;2023-10-31T02:47:38;100956.34;;;-2.42;71.89
82512;BME280;72152;65.012;25.464;2023-10-31T02:50:26;100960.34;;;-2.45;72.06
82512;BME280;72152;65.012;25.464;2023-10-31T02:53:15;100960.92;;;-2.47;72.10
82512;BME280;72152;65.012;25.464;2023-10-31T02:56:03;100964.04;;;-2.47;72.11
82512;BME280;72152;65.012;25.464;2023-10-31T02:58:43;100961.23;;;-2.47;72.20
82512;BME280;72152;65.012;25.464;2023-10-31T03:01:28;100959.92;;;-2.49;72.18
82512;BME280;72152;65.012;25.464;2023-10-31T03:04:13;100964.62;;;-2.55;72.21
82512;BME280;72152;65.012;25.464;2023-10-31T03:07:06;100964.52;;;-2.67;72.41
82512;BME280;72152;65.012;25.464;2023-10-31T03:09:57;100968.14;;;-2.73;72.47
82512;BME280;72152;65.012;25.464;2023-10-31T03:12:49;100964.77;;;-2.78;72.49
82512;BME280;72152;65.012;25.464;2023-10-31T03:15:48;100966.98;;;-2.85;72.67
82512;BME280;72152;65.012;25.464;2023-10-31T03:18:42;100970.75;;;-2.88;72.71
82512;BME280;72152;65.012;25.464;2023-10-31T03:21:31;100972.11;;;-2.89;72.74
82512;BME280;72152;65.012;25.464;2023-10-31T03:24:25;100969.02;;;-2.88;72.87
82512;BME280;72152;65.012;25.464;2023-10-31T03:27:17;100969.17;;;-2.89;72.85
82512;BME280;72152;65.012;25.464;2023-10-31T03:30:02;100966.21;;;-2.93;72.95
82512;BME280;72152;65.012;25.464;2023-10-31T03:32:49;100967.70;;;-2.94;72.84
82512;BME280;72152;65.012;25.464;2023-10-31T03:35:36;100964.45;;;-2.97;72.83
82512;BME280;72152;65.012;25.464;2023-10-31T03:38:28;100967.34;;;-3.00;72.88
82512;BME280;72152;65.012;25.464;2023-10-31T03:41:07;100968.20;;;-3.10;72.78
82512;BME280;72152;65.012;25.464;2023-10-31T03:43:55;100966.02;;;-3.18;72.74
82512;BME280;72152;65.012;25.464;2023-10-31T03:46:39;100970.16;;;-3.27;72.81
82512;BME280;72152;65.012;25.464;2023-10-31T03:49:27;100971.64;;;-3.35;72.77
82512;BME280;72152;65.012;25.464;2023-10-31T03:52:15;100966.27;;;-3.48;72.57
82512;BME280;72152;65.012;25.464;2023-10-31T03:55:03;100969.08;;;-3.61;72.64
82512;BME280;72152;65.012;25.464;2023-10-31T03:57:55;100968.69;;;-3.71;72.68
82512;BME280;72152;65.012;25.464;2023-10-31T04:03:39;100979.89;;;-3.88;72.96
82512;BME280;72152;65.012;25.464;2023-10-31T04:06:29;100987.36;;;-3.93;73.08
82512;BME280;72152;65.012;25.464;2023-10-31T04:09:21;100991.86;;;-3.92;73.14
82512;BME280;72152;65.012;25.464;2023-10-31T04:12:07;101002.54;;;-3.89;73.00
82512;BME280;72152;65.012;25.464;2023-10-31T04:14:58;101006.42;;;-3.85;73.17
82512;BME280;72152;65.012;25.464;2023-10-31T04:17:47;101009.84;;;-3.85;73.08
82512;BME280;72152;65.012;25.464;2023-10-31T04:20:33;101014.89;;;-3.84;73.00
82512;BME280;72152;65.012;25.464;2023-10-31T04:23:26;101015.64;;;-3.83;72.98
82512;BME280;72152;65.012;25.464;2023-10-31T04:26:17;101021.14;;;-3.83;73.00
82512;BME280;72152;65.012;25.464;2023-10-31T04:29:05;101024.79;;;-3.82;73.01
82512;BME280;72152;65.012;25.464;2023-10-31T04:31:53;101024.23;;;-3.83;73.00
82512;BME280;72152;65.012;25.464;2023-10-31T04:34:41;101025.98;;;-3.85;73.01
82512;BME280;72152;65.012;25.464;2023-10-31T04:37:26;101030.02;;;-3.84;72.95
82512;BME280;72152;65.012;25.464;2023-10-31T04:40:33;101034.22;;;-3.82;73.00
82512;BME280;72152;65.012;25.464;2023-10-31T04:43:22;101037.50;;;-3.82;72.97
82512;BME280;72152;65.012;25.464;2023-10-31T04:46:15;101040.05;;;-3.83;72.95
82512;BME280;72152;65.012;25.464;2023-10-31T04:49:03;101044.46;;;-3.81;73.00
82512;BME280;72152;65.012;25.464;2023-10-31T04:51:56;101045.53;;;-3.77;72.95
82512;BME280;72152;65.012;25.464;2023-10-31T04:54:41;101048.69;;;-3.73;72.91
82512;BME280;72152;65.012;25.464;2023-10-31T04:57:38;101051.20;;;-3.74;72.80
82512;BME280;72152;65.012;25.464;2023-10-31T05:00:28;101055.52;;;-3.77;72.57
82512;BME280;72152;65.012;25.464;2023-10-31T05:03:09;101056.05;;;-3.77;72.48
82512;BME280;72152;65.012;25.464;2023-10-31T05:05:55;101061.45;;;-3.75;72.35
82512;BME280;72152;65.012;25.464;2023-10-31T05:08:36;101059.54;;;-3.76;72.39
82512;BME280;72152;65.012;25.464;2023-10-31T05:11:27;101060.33;;;-3.77;72.20
82512;BME280;72152;65.012;25.464;2023-10-31T05:14:16;101060.55;;;-3.79;72.17
82512;BME280;72152;65.012;25.464;2023-10-31T05:17:03;101062.34;;;-3.81;72.13
82512;BME280;72152;65.012;25.464;2023-10-31T05:19:50;101063.88;;;-3.81;72.16
82512;BME280;72152;65.012;25.464;2023-10-31T05:22:37;101067.59;;;-3.79;72.04
82512;BME280;72152;65.012;25.464;2023-10-31T05:25:15;101074.47;;;-3.79;71.93
82512;BME280;72152;65.012;25.464;2023-10-31T05:28:03;101073.27;;;-3.82;71.91
82512;BME280;72152;65.012;25.464;2023-10-31T05:30:50;101074.36;;;-3.84;71.78
82512;BME280;72152;65.012;25.464;2023-10-31T05:33:42;101075.05;;;-3.87;71.81
82512;BME280;72152;65.012;25.464;2023-10-31T05:36:34;101074.52;;;-3.90;71.83
82512;BME280;72152;65.012;25.464;2023-10-31T05:39:27;101079.36;;;-3.92;71.73
82512;BME280;72152;65.012;25.464;2023-10-31T05:42:16;101078.09;;;-3.96;71.89
82512;BME280;72152;65.012;25.464;2023-10-31T05:45:06;101082.89;;;-3.97;71.86
82512;BME280;72152;65.012;25.464;2023-10-31T05:47:52;101082.13;;;-3.98;71.91
82512;BME280;72152;65.012;25.464;2023-10-31T05:50:41;101085.45;;;-3.94;71.99
82512;BME280;72152;65.012;25.464;2023-10-31T05:53:26;101085.79;;;-3.91;71.92
82512;BME280;72152;65.012;25.464;2023-10-31T05:56:08;101083.52;;;-3.89;72.02
82512;BME280;72152;65.012;25.464;2023-10-31T05:58:47;101083.04;;;-3.88;71.93
82512;BME280;72152;65.012;25.464;2023-10-31T06:01:33;101085.71;;;-3.89;71.90
82512;BME280;72152;65.012;25.464;2023-10-31T06:04:16;101088.67;;;-3.89;71.56
82512;BME280;72152;65.012;25.464;2023-10-31T06:07:03;101093.00;;;-3.91;71.41
82512;BME280;72152;65.012;25.464;2023-10-31T06:12:44;101102.64;;;-4.02;71.14
82512;BME280;72152;65.012;25.464;2023-10-31T06:15:37;101102.98;;;-4.07;71.07
82512;BME280;72152;65.012;25.464;2023-10-31T06:18:25;101110.69;;;-4.14;71.10
82512;BME280;72152;65.012;25.464;2023-10-31T06:21:13;101114.89;;;-4.15;71.16
82512;BME280;72152;65.012;25.464;2023-10-31T06:24:02;101113.15;;;-4.16;71.01
82512;BME280;72152;65.012;25.464;2023-10-31T06:26:48;101109.15;;;-4.17;71.07
82512;BME280;72152;65.012;25.464;2023-10-31T06:29:39;101113.43;;;-4.17;71.06
82512;BME280;72152;65.012;25.464;2023-10-31T06:32:28;101119.68;;;-4.15;70.91
82512;BME280;72152;65.012;25.464;2023-10-31T06:35:08;101118.16;;;-4.15;70.78
82512;BME280;72152;65.012;25.464;2023-10-31T06:37:58;101124.84;;;-4.15;70.88
82512;BME280;72152;65.012;25.464;2023-10-31T06:40:45;101121.05;;;-4.13;71.09
82512;BME280;72152;65.012;25.464;2023-10-31T06:43:39;101122.11;;;-4.09;70.83
82512;BME280;72152;65.012;25.464;2023-10-31T06:46:23;101124.95;;;-4.08;70.81
82512;BME280;72152;65.012;25.464;2023-10-31T06:49:11;101125.52;;;-4.07;70.77
82512;BME280;72152;65.012;25.464;2023-10-31T06:51:59;101124.91;;;-4.06;70.67
82512;BME280;72152;65.012;25.464;2023-10-31T06:54:47;101119.12;;;-4.05;70.78
82512;BME280;72152;65.012;25.464;2023-10-31T06:57:35;101118.30;;;-4.02;71.01
82512;BME280;72152;65.012;25.464;2023-10-31T07:00:33;101125.58;;;-3.98;70.80
82512;BME280;72152;65.012;25.464;2023-10-31T07:03:24;101126.20;;;-3.96;70.82
82512;BME280;72152;65.012;25.464;2023-10-31T07:06:15;101137.13;;;-3.92;70.94
82512;BME280;72152;65.012;25.464;2023-10-31T07:08:54;101135.36;;;-3.85;70.92
82512;BME280;72152;65.012;25.464;2023-10-31T07:11:46;101134.58;;;-3.80;70.67
82512;BME280;72152;65.012;25.464;2023-10-31T07:14:42;101141.36;;;-3.73;70.60
82512;BME280;72152;65.012;25.464;2023-10-31T07:17:29;101144.98;;;-3.70;70.41
82512;BME280;72152;65.012;25.464;2023-10-31T07:20:26;101141.38;;;-3.67;70.24
82512;BME280;72152;65.012;25.464;2023-10-31T07:23:16;101145.41;;;-3.66;70.02
82512;BME280;72152;65.012;25.464;2023-10-31T07:26:05;101144.54;;;-3.66;70.04
82512;BME280;72152;65.012;25.464;2023-10-31T07:28:57;101148.55;;;-3.65;69.88
82512;BME280;72152;65.012;25.464;2023-10-31T07:31:41;101150.82;;;-3.65;69.84
82512;BME280;72152;65.012;25.464;2023-10-31T07:34:28;101153.39;;;-3.62;69.72
82512;BME280;72152;65.012;25.464;2023-10-31T07:37:21;101158.98;;;-3.60;69.84
82512;BME280;72152;65.012;25.464;2023-10-31T07:40:13;101161.70;;;-3.58;69.65
82512;BME280;72152;65.012;25.464;2023-10-31T07:42:50;101155.82;;;-3.59;69.45
82512;BME280;72152;65.012;25.464;2023-10-31T07:45:38;101160.68;;;-3.61;69.58
82512;BME280;72152;65.012;25.464;2023-10-31T07:48:24;101167.02;;;-3.61;69.73
82512;BME280;72152;65.012;25.464;2023-10-31T07:51:14;101166.16;;;-3.59;69.72
82512;BME280;72152;65.012;25.464;2023-10-31T07:54:07;101173.82;;;-3.57;69.74
82512;BME280;72152;65.012;25.464;2023-10-31T07:56:57;101175.96;;;-3.59;69.60
82512;BME280;72152;65.012;25.464;2023-10-31T07:59:49;101183.05;;;-3.58;69.73
82512;BME280;72152;65.012;25.464;2023-10-31T08:02:36;101185.94;;;-3.53;69.70
82512;BME280;72152;65.012;25.464;2023-10-31T08:05:25;101188.44;;;-3.48;69.70
82512;BME280;72152;65.012;25.464;2023-10-31T08:08:23;101190.66;;;-3.46;69.86
82512;BME280;72152;65.012;25.464;2023-10-31T08:11:10;101192.30;;;-3.41;69.91
82512;BME280;72152;65.012;25.464;2023-10-31T08:13:58;101197.01;;;-3.35;70.04
82512;BME280;72152;65.012;25.464;2023-10-31T08:16:43;101196.23;;;-3.28;70.03
82512;BME280;72152;65.012;25.464;2023-10-31T08:19:27;101196.15;;;-3.20;69.90
82512;BME280;72152;65.012;25.464;2023-10-31T08:22:18;101198.73;;;-3.12;69.84
82512;BME280;72152;65.012;25.464;2023-10-31T08:25:12;101198.02;;;-3.03;69.79
82512;BME280;72152;65.012;25.464;2023-10-31T08:28:00;101195.95;;;-2.97;69.66
82512;BME280;72152;65.012;25.464;2023-10-31T08:30:48;101199.69;;;-2.92;69.60
82512;BME280;72152;65.012;25.464;2023-10-31T08:33:45;101200.66;;;-2.90;69.52
82512;BME280;72152;65.012;25.464;2023-10-31T08:36:34;101200.77;;;-2.85;69.44
82512;BME280;72152;65.012;25.464;2023-10-31T08:39:30;101203.10;;;-2.81;69.42
82512;BME280;72152;65.012;25.464;2023-10-31T08:42:17;101202.83;;;-2.76;69.31
82512;BME280;72152;65.012;25.464;2023-10-31T08:45:12;101210.67;;;-2.72;69.40
82512;BME280;72152;65.012;25.464;2023-10-31T08:48:01;101213.92;;;-2.69;69.31
82512;BME280;72152;65.012;25.464;2023-10-31T08:50:49;101221.21;;;-2.66;69.34
82512;BME280;72152;65.012;25.464;2023-10-31T08:53:35;101225.70;;;-2.62;69.33
82512;BME280;72152;65.012;25.464;2023-10-31T08:56:24;101225.98;;;-2.57;69.22
82512;BME280;72152;65.012;25.464;2023-10-31T08:59:12;101229.17;;;-2.53;69.18
82512;BME280;72152;65.012;25.464;2023-10-31T09:02:00;101231.59;;;-2.47;69.16
82512;BME280;72152;65.012;25.464;2023-10-31T09:04:49;101234.08;;;-2.39;69.05
82512;BME280;72152;65.012;25.464;2023-10-31T09:07:35;101232.45;;;-2.35;68.92
82512;BME280;72152;65.012;25.464;2023-10-31T09:10:27;101226.69;;;-2.30;68.86
82512;BME280;72152;65.012;25.464;2023-10-31T09:13:12;101227.16;;;-2.25;68.90
82512;BME280;72152;65.012;25.464;2023-10-31T09:16:18;101223.29;;;-2.20;68.65
82512;BME280;72152;65.012;25.464;2023-10-31T09:19:03;101218.89;;;-2.15;68.68
82512;BME280;72152;65.012;25.464;2023-10-31T09:21:42;101216.79;;;-2.13;68.58
82512;BME280;72152;65.012;25.464;2023-10-31T09:24:29;101216.98;;;-2.12;68.52
82512;BME280;72152;65.012;25.464;2023-10-31T09:27:27;101219.84;;;-2.11;68.40
82512;BME280;72152;65.012;25.464;2023-10-31T09:30:27;101221.21;;;-2.07;68.35
82512;BME280;72152;65.012;25.464;2023-10-31T09:33:13;101227.19;;;-2.06;68.25
82512;BME280;72152;65.012;25.464;2023-10-31T09:36:02;101232.00;;;-2.03;68.42
82512;BME280;72152;65.012;25.464;2023-10-31T09:38:53;101232.09;;;-1.98;68.29
82512;BME280;72152;65.012;25.464;2023-10-31T09:41:40;101235.50;;;-1.92;68.27
82512;BME280;72152;65.012;25.464;2023-10-31T09:44:27;101236.98;;;-1.87;68.27
82512;BME280;72152;65.012;25.464;2023-10-31T09:47:14;101238.21;;;-1.81;68.12
82512;BME280;72152;65.012;25.464;2023-10-31T09:50:03;101237.41;;;-1.73;68.04
82512;BME280;72152;65.012;25.464;2023-10-31T09:52:55;101236.61;;;-1.72;67.88
82512;BME280;72152;65.012;25.464;2023-10-31T09:55:43;101238.71;;;-1.68;67.88
82512;BME280;72152;65.012;25.464;2023-10-31T09:58:31;101239.12;;;-1.64;67.80
82512;BME280;72152;65.012;25.464;2023-10-31T10:01:20;101234.30;;;-1.61;67.78
82512;BME280;72152;65.012;25.464;2023-10-31T10:04:13;101234.02;;;-1.57;67.66
82512;BME280;72152;65.012;25.464;2023-10-31T10:07:14;101236.81;;;-1.56;67.64
82512;BME280;72152;65.012;25.464;2023-10-31T10:10:02;101241.49;;;-1.55;67.55
82512;BME280;72152;65.012;25.464;2023-10-31T10:12:55;101235.20;;;-1.53;67.39
82512;BME280;72152;65.012;25.464;2023-10-31T10:18:45;101238.02;;;-1.48;67.37
82512;BME280;72152;65.012;25.464;2023-10-31T10:21:31;101236.79;;;-1.46;67.41
82512;BME280;72152;65.012;25.464;2023-10-31T10:24:34;101239.20;;;-1.43;67.20
82512;BME280;72152;65.012;25.464;2023-10-31T10:27:22;101239.79;;;-1.41;67.30
82512;BME280;72152;65.012;25.464;2023-10-31T10:30:17;101237.03;;;-1.38;67.09
82512;BME280;72152;65.012;25.464;2023-10-31T10:33:05;101236.02;;;-1.38;67.02
82512;BME280;72152;65.012;25.464;2023-10-31T10:35:45;101238.00;;;-1.39;67.07
82512;BME280;72152;65.012;25.464;2023-10-31T10:38:34;101245.77;;;-1.39;67.03
82512;BME280;72152;65.012;25.464;2023-10-31T10:41:19;101247.12;;;-1.36;67.18
82512;BME280;72152;65.012;25.464;2023-10-31T10:44:07;101249.64;;;-1.31;67.08
82512;BME280;72152;65.012;25.464;2023-10-31T10:46:58;101246.97;;;-1.33;66.96
82512;BME280;72152;65.012;25.464;2023-10-31T10:49:49;101248.21;;;-1.29;67.07
82512;BME280;72152;65.012;25.464;2023-10-31T10:52:44;101250.34;;;-1.25;67.16
82512;BME280;72152;65.012;25.464;2023-10-31T10:55:32;101257.73;;;-1.25;66.85
82512;BME280;72152;65.012;25.464;2023-10-31T10:58:33;101258.09;;;-1.25;67.00
82512;BME280;72152;65.012;25.464;2023-10-31T11:01:18;101261.27;;;-1.24;67.01
82512;BME280;72152;65.012;25.464;2023-10-31T11:04:14;101261.61;;;-1.24;67.01
82512;BME280;72152;65.012;25.464;2023-10-31T11:07:03;101254.65;;;-1.21;67.04
82512;BME280;72152;65.012;25.464;2023-10-31T11:09:50;101255.36;;;-1.18;67.24
82512;BME280;72152;65.012;25.464;2023-10-31T11:12:43;101257.45;;;-1.14;67.05
82512;BME280;72152;65.012;25.464;2023-10-31T11:15:36;101258.45;;;-1.12;66.94
82512;BME280;72152;65.012;25.464;2023-10-31T11:18:25;101257.55;;;-1.09;67.04
82512;BME280;72152;65.012;25.464;2023-10-31T11:21:13;101252.26;;;-1.08;66.96
82512;BME280;72152;65.012;25.464;2023-10-31T11:24:03;101251.77;;;-1.07;66.89
82512;BME280;72152;65.012;25.464;2023-10-31T11:26:58;101253.86;;;-1.07;66.82
82512;BME280;72152;65.012;25.464;2023-10-31T11:29:47;101257.16;;;-1.06;66.85
82512;BME280;72152;65.012;25.464;2023-10-31T11:32:31;101257.45;;;-1.04;66.76
82512;BME280;72152;65.012;25.464;2023-10-31T11:35:24;101254.27;;;-0.99;66.86
82512;BME280;72152;65.012;25.464;2023-10-31T11:38:14;101258.20;;;-0.96;66.81
82512;BME280;72152;65.012;25.464;2023-10-31T11:41:14;101257.40;;;-0.98;66.57
82512;BME280;72152;65.012;25.464;2023-10-31T11:44:04;101258.71;;;-1.00;66.65
82512;BME280;72152;65.012;25.464;2023-10-31T11:46:47;101255.95;;;-1.00;66.53
82512;BME280;72152;65.012;25.464;2023-10-31T11:52:32;101257.75;;;-0.92;66.67
82512;BME280;72152;65.012;25.464;2023-10-31T11:55:27;101258.30;;;-0.91;66.58
82512;BME280;72152;65.012;25.464;2023-10-31T11:58:27;101258.98;;;-0.94;66.64
82512;BME280;72152;65.012;25.464;2023-10-31T12:01:04;101254.36;;;-0.97;66.48
82512;BME280;72152;65.012;25.464;2023-10-31T12:03:53;101253.69;;;-1.00;66.55
82512;BME280;72152;65.012;25.464;2023-10-31T12:06:34;101252.36;;;-1.02;66.59
82512;BME280;72152;65.012;25.464;2023-10-31T12:09:19;101249.12;;;-1.05;66.67
82512;BME280;72152;65.012;25.464;2023-10-31T12:12:03;101252.24;;;-1.05;66.70
82512;BME280;72152;65.012;25.464;2023-10-31T12:14:50;101247.13;;;-1.07;66.73
82512;BME280;72152;65.012;25.464;2023-10-31T12:17:35;101247.80;;;-1.07;66.66
82512;BME280;72152;65.012;25.464;2023-10-31T12:20:25;101246.89;;;-1.08;66.81
82512;BME280;72152;65.012;25.464;2023-10-31T12:23:19;101244.45;;;-1.08;66.84
82512;BME280;72152;65.012;25.464;2023-10-31T12:26:14;101245.75;;;-1.10;66.70
82512;BME280;72152;65.012;25.464;2023-10-31T12:29:15;101249.98;;;-1.15;66.83
82512;BME280;72152;65.012;25.464;2023-10-31T12:32:04;101248.96;;;-1.21;66.86
82512;BME280;72152;65.012;25.464;2023-10-31T12:37:41;101243.98;;;-1.24;66.88
82512;BME280;72152;65.012;25.464;2023-10-31T12:40:23;101240.73;;;-1.27;66.99
82512;BME280;72152;65.012;25.464;2023-10-31T12:43:14;101237.67;;;-1.29;66.90
82512;BME280;72152;65.012;25.464;2023-10-31T12:46:03;101235.98;;;-1.31;67.15
82512;BME280;72152;65.012;25.464;2023-10-31T12:49:20;101235.63;;;-1.39;67.18
82512;BME280;72152;65.012;25.464;2023-10-31T12:52:12;101236.09;;;-1.43;67.30
82512;BME280;72152;65.012;25.464;2023-10-31T12:55:04;101236.91;;;-1.47;67.38
82512;BME280;72152;65.012;25.464;2023-10-31T12:57:58;101238.98;;;-1.50;67.44
82512;BME280;72152;65.012;25.464;2023-10-31T13:00:47;101241.96;;;-1.53;67.48
82512;BME280;72152;65.012;25.464;2023-10-31T13:03:30;101244.57;;;-1.56;67.55
82512;BME280;72152;65.012;25.464;2023-10-31T13:06:33;101239.08;;;-1.59;67.68
82512;BME280;72152;65.012;25.464;2023-10-31T13:09:23;101240.67;;;-1.64;67.74
82512;BME280;72152;65.012;25.464;2023-10-31T13:12:16;101247.77;;;-1.70;67.80
82512;BME280;72152;65.012;25.464;2023-10-31T13:15:15;101245.73;;;-1.76;67.89
82512;BME280;72152;65.012;25.464;2023-10-31T13:18:04;101249.98;;;-1.77;68.03
82512;BME280;72152;65.012;25.464;2023-10-31T13:20:52;101250.01;;;-1.80;68.16
82512;BME280;72152;65.012;25.464;2023-10-31T13:23:36;101248.73;;;-1.84;68.10
82512;BME280;72152;65.012;25.464;2023-10-31T13:26:21;101249.77;;;-1.87;68.27
82512;BME280;72152;65.012;25.464;2023-10-31T13:29:09;101250.80;;;-1.90;68.44
82512;BME280;72152;65.012;25.464;2023-10-31T13:31:57;101246.60;;;-1.94;68.50
82512;BME280;72152;65.012;25.464;2023-10-31T13:34:48;101244.60;;;-1.96;68.56
82512;BME280;72152;65.012;25.464;2023-10-31T13:37:32;101248.84;;;-2.01;68.50
82512;BME280;72152;65.012;25.464;2023-10-31T13:40:29;101252.48;;;-2.06;68.72
82512;BME280;72152;65.012;25.464;2023-10-31T13:43:17;101258.98;;;-2.13;68.68
82512;BME280;72152;65.012;25.464;2023-10-31T13:46:03;101262.17;;;-2.18;68.86
82512;BME280;72152;65.012;25.464;2023-10-31T13:48:57;101268.17;;;-2.25;68.81
82512;BME280;72152;65.012;25.464;2023-10-31T13:51:39;101268.36;;;-2.30;69.02
82512;BME280;72152;65.012;25.464;2023-10-31T13:54:31;101274.66;;;-2.35;69.11
82512;BME280;72152;65.012;25.464;2023-10-31T13:57:13;101277.36;;;-2.39;69.12
82512;BME280;72152;65.012;25.464;2023-10-31T13:59:53;101277.05;;;-2.44;69.12
82512;BME280;72152;65.012;25.464;2023-10-31T14:02:41;101279.90;;;-2.48;69.22
82512;BME280;72152;65.012;25.464;2023-10-31T14:05:28;101279.75;;;-2.54;69.30
82512;BME280;72152;65.012;25.464;2023-10-31T14:08:12;101278.45;;;-2.59;69.26
82512;BME280;72152;65.012;25.464;2023-10-31T14:10:54;101273.20;;;-2.63;69.40
82512;BME280;72152;65.012;25.464;2023-10-31T14:13:47;101275.25;;;-2.69;69.31
82512;BME280;72152;65.012;25.464;2023-10-31T14:16:42;101278.55;;;-2.77;69.46
82512;BME280;72152;65.012;25.464;2023-10-31T14:19:27;101279.16;;;-2.85;69.48
82512;BME280;72152;65.012;25.464;2023-10-31T14:22:11;101286.30;;;-2.89;69.59
82512;BME280;72152;65.012;25.464;2023-10-31T14:25:05;101290.25;;;-2.92;69.57
82512;BME280;72152;65.012;25.464;2023-10-31T14:27:53;101289.99;;;-2.96;69.60
82512;BME280;72152;65.012;25.464;2023-10-31T14:30:41;101289.42;;;-3.00;69.71
82512;BME280;72152;65.012;25.464;2023-10-31T14:33:22;101294.25;;;-3.03;69.69
82512;BME280;72152;65.012;25.464;2023-10-31T14:36:06;101303.13;;;-3.07;69.69
82512;BME280;72152;65.012;25.464;2023-10-31T14:38:55;101303.70;;;-3.15;69.75
82512;BME280;72152;65.012;25.464;2023-10-31T14:41:38;101310.13;;;-3.19;69.83
82512;BME280;72152;65.012;25.464;2023-10-31T14:44:29;101314.30;;;-3.24;69.78
82512;BME280;72152;65.012;25.464;2023-10-31T14:47:20;101317.23;;;-3.27;69.85
82512;BME280;72152;65.012;25.464;2023-10-31T14:53:06;101314.16;;;-3.32;69.88